createdAt,value
2018-05-16T00:01:16.308Z,15.06
2018-05-16T00:03:43.783Z,15.01
2018-05-16T00:06:11.273Z,14.97
2018-05-16T00:08:38.738Z,15.00
2018-05-16T00:11:06.246Z,15.15
2018-05-16T00:13:33.708Z,15.17
2018-05-16T00:16:01.791Z,15.22
2018-05-16T00:18:29.275Z,15.32
2018-05-16T00:20:56.753Z,15.38
2018-05-16T00:23:24.237Z,15.36
2018-05-16T00:25:51.709Z,15.34
2018-05-16T00:28:19.190Z,15.35
2018-05-16T00:30:46.658Z,15.34
2018-05-16T00:33:14.142Z,15.43
2018-05-16T00:35:41.606Z,15.51
2018-05-16T00:38:09.092Z,15.47
2018-05-16T00:40:36.558Z,15.48
2018-05-16T00:43:04.046Z,15.38
2018-05-16T00:45:31.510Z,15.44
2018-05-16T00:47:59.000Z,15.36
2018-05-16T00:50:26.474Z,15.41
2018-05-16T00:52:54.006Z,15.40
2018-05-16T00:55:21.466Z,15.34
2018-05-16T00:57:48.962Z,15.45
2018-05-16T01:00:16.425Z,15.34
2018-05-16T01:02:43.917Z,15.38
2018-05-16T01:05:11.384Z,15.27
2018-05-16T01:07:38.879Z,15.26
2018-05-16T01:10:06.363Z,15.33
2018-05-16T01:12:33.858Z,15.25
2018-05-16T01:15:01.316Z,15.24
2018-05-16T01:17:28.881Z,15.23
2018-05-16T01:19:56.310Z,15.36
2018-05-16T01:22:23.789Z,15.27
2018-05-16T01:24:51.256Z,15.18
2018-05-16T01:27:18.733Z,15.29
2018-05-16T01:29:46.194Z,15.21
2018-05-16T01:32:14.590Z,15.13
2018-05-16T01:34:42.054Z,15.08
2018-05-16T01:37:10.010Z,15.04
2018-05-16T01:39:37.479Z,14.99
2018-05-16T01:42:04.962Z,15.13
2018-05-16T01:44:32.446Z,15.19
2018-05-16T01:46:59.910Z,15.25
2018-05-16T01:49:27.411Z,15.34
2018-05-16T01:51:54.878Z,15.37
2018-05-16T01:54:22.358Z,15.38
2018-05-16T01:56:49.809Z,15.42
2018-05-16T01:59:17.290Z,15.47
2018-05-16T02:01:44.738Z,15.42
2018-05-16T02:04:12.215Z,15.43
2018-05-16T02:06:39.677Z,15.44
2018-05-16T02:09:07.149Z,15.40
2018-05-16T02:11:34.602Z,15.38
2018-05-16T02:14:02.082Z,15.35
2018-05-16T02:16:29.547Z,15.34
2018-05-16T02:18:57.023Z,15.31
2018-05-16T02:21:24.487Z,15.29
2018-05-16T02:23:51.972Z,15.24
2018-05-16T02:26:19.430Z,15.19
2018-05-16T02:28:46.910Z,15.14
2018-05-16T02:31:14.372Z,15.02
2018-05-16T02:33:41.849Z,14.89
2018-05-16T02:36:09.305Z,14.88
2018-05-16T02:38:36.783Z,14.79
2018-05-16T02:41:04.239Z,14.79
2018-05-16T02:43:31.709Z,14.63
2018-05-16T02:45:59.165Z,14.53
2018-05-16T02:48:26.641Z,14.55
2018-05-16T02:50:54.106Z,14.49
2018-05-16T02:53:21.586Z,14.39
2018-05-16T02:55:49.055Z,14.28
2018-05-16T02:58:16.535Z,14.37
2018-05-16T03:00:44.002Z,14.24
2018-05-16T03:03:11.457Z,14.12
2018-05-16T03:05:38.947Z,14.11
2018-05-16T03:08:06.409Z,14.20
2018-05-16T03:10:33.895Z,14.06
2018-05-16T03:13:01.370Z,14.07
2018-05-16T03:15:28.935Z,13.94
2018-05-16T03:17:56.329Z,13.79
2018-05-16T03:20:23.820Z,13.81
2018-05-16T03:22:51.294Z,13.86
2018-05-16T03:25:18.778Z,13.88
2018-05-16T03:27:46.250Z,13.83
2018-05-16T03:30:13.740Z,13.87
2018-05-16T03:32:41.202Z,13.86
2018-05-16T03:35:08.687Z,13.74
2018-05-16T03:37:36.158Z,13.81
2018-05-16T03:40:03.666Z,13.80
2018-05-16T03:42:31.146Z,13.80
2018-05-16T03:44:58.630Z,13.74
2018-05-16T03:47:26.090Z,13.96
2018-05-16T03:49:53.565Z,14.06
2018-05-16T03:52:21.039Z,14.15
2018-05-16T03:54:48.531Z,14.18
2018-05-16T03:57:27.641Z,14.22
2018-05-16T04:00:06.849Z,14.27
2018-05-16T04:02:45.913Z,14.30
2018-05-16T04:05:13.403Z,14.28
2018-05-16T04:07:40.882Z,14.06
2018-05-16T04:10:08.366Z,14.21
2018-05-16T04:12:35.837Z,14.39
2018-05-16T04:15:03.707Z,14.47
2018-05-16T04:17:31.166Z,14.54
2018-05-16T04:19:58.656Z,14.50
2018-05-16T04:22:26.128Z,14.48
2018-05-16T04:24:53.617Z,14.22
2018-05-16T04:27:21.181Z,14.35
2018-05-16T04:29:48.607Z,14.40
2018-05-16T04:32:16.066Z,14.35
2018-05-16T04:34:43.555Z,14.35
2018-05-16T04:37:11.025Z,14.31
2018-05-16T04:39:38.502Z,14.48
2018-05-16T04:42:05.980Z,14.38
2018-05-16T04:44:33.454Z,14.58
2018-05-16T04:47:00.941Z,14.55
2018-05-16T04:49:28.450Z,14.60
2018-05-16T04:51:55.947Z,14.77
2018-05-16T04:54:23.425Z,14.93
2018-05-16T04:56:50.924Z,14.98
2018-05-16T04:59:18.396Z,15.12
2018-05-16T05:01:45.879Z,15.14
2018-05-16T05:04:13.356Z,15.38
2018-05-16T05:06:40.847Z,15.46
2018-05-16T05:09:08.313Z,15.66
2018-05-16T05:11:35.802Z,15.54
2018-05-16T05:14:03.274Z,15.76
2018-05-16T05:16:30.761Z,15.61
2018-05-16T05:18:58.235Z,15.39
2018-05-16T05:21:25.721Z,15.13
2018-05-16T05:23:53.177Z,15.30
2018-05-16T05:26:20.662Z,15.40
2018-05-16T05:28:48.127Z,15.34
2018-05-16T05:31:15.618Z,15.17
2018-05-16T05:33:43.081Z,15.29
2018-05-16T05:36:10.565Z,15.30
2018-05-16T05:38:38.038Z,15.15
2018-05-16T05:41:05.534Z,15.15
2018-05-16T05:43:33.473Z,15.15
2018-05-16T05:46:00.966Z,15.20
2018-05-16T05:48:28.447Z,15.29
2018-05-16T05:50:55.939Z,15.79
2018-05-16T05:53:23.406Z,15.81
2018-05-16T05:55:50.893Z,15.61
2018-05-16T05:58:18.427Z,15.31
2018-05-16T06:00:45.957Z,15.64
2018-05-16T06:03:13.433Z,15.57
2018-05-16T06:05:40.902Z,15.51
2018-05-16T06:08:08.395Z,15.92
2018-05-16T06:10:35.916Z,16.23
2018-05-16T06:13:03.414Z,16.60
2018-05-16T06:15:30.885Z,16.18
2018-05-16T06:17:58.374Z,16.33
2018-05-16T06:20:26.624Z,16.43
2018-05-16T06:22:54.117Z,16.60
2018-05-16T06:25:21.581Z,16.33
2018-05-16T06:27:49.069Z,16.32
2018-05-16T06:30:16.525Z,16.34
2018-05-16T06:32:44.012Z,16.64
2018-05-16T06:35:11.498Z,16.72
2018-05-16T06:37:38.985Z,16.74
2018-05-16T06:40:06.460Z,16.98
2018-05-16T06:42:33.946Z,16.48
2018-05-16T06:45:01.420Z,16.82
2018-05-16T06:47:28.901Z,17.13
2018-05-16T06:49:56.378Z,17.34
2018-05-16T06:52:23.869Z,16.56
2018-05-16T06:54:51.338Z,16.98
2018-05-16T06:57:18.877Z,17.20
2018-05-16T06:59:46.339Z,17.32
2018-05-16T07:02:13.822Z,17.59
2018-05-16T07:04:41.302Z,17.31
2018-05-16T07:07:08.794Z,17.63
2018-05-16T07:09:36.280Z,17.66
2018-05-16T07:12:03.772Z,17.92
2018-05-16T07:14:31.246Z,17.95
2018-05-16T07:16:58.729Z,17.93
2018-05-16T07:19:26.201Z,17.95
2018-05-16T07:21:53.687Z,18.26
2018-05-16T07:24:21.160Z,17.79
2018-05-16T07:26:48.705Z,18.05
2018-05-16T07:29:16.195Z,18.00
2018-05-16T07:31:43.670Z,18.40
2018-05-16T07:34:11.153Z,18.42
2018-05-16T07:36:38.613Z,18.51
2018-05-16T07:39:06.112Z,18.63
2018-05-16T07:41:33.577Z,19.02
2018-05-16T07:44:01.065Z,19.00
2018-05-16T07:46:28.534Z,19.07
2018-05-16T07:48:56.018Z,19.14
2018-05-16T07:51:23.493Z,19.46
2018-05-16T07:53:50.992Z,19.73
2018-05-16T07:56:18.486Z,19.72
2018-05-16T07:58:45.978Z,20.23
2018-05-16T08:01:13.433Z,19.20
2018-05-16T08:03:40.912Z,19.94
2018-05-16T08:06:08.370Z,18.83
2018-05-16T08:08:35.863Z,19.20
2018-05-16T08:11:03.346Z,19.53
2018-05-16T08:13:30.841Z,18.68
2018-05-16T08:15:58.313Z,18.71
2018-05-16T08:18:25.796Z,18.87
2018-05-16T08:20:53.263Z,19.06
2018-05-16T08:23:20.746Z,19.07
2018-05-16T08:25:48.222Z,19.08
2018-05-16T08:28:15.703Z,19.17
2018-05-16T08:30:43.169Z,19.41
2018-05-16T08:33:10.659Z,19.42
2018-05-16T08:35:38.125Z,19.05
2018-05-16T08:38:05.614Z,19.77
2018-05-16T08:40:33.082Z,19.12
2018-05-16T08:43:00.641Z,19.48
2018-05-16T08:45:28.046Z,19.56
2018-05-16T08:47:55.529Z,19.15
2018-05-16T08:50:23.002Z,18.80
2018-05-16T08:52:50.499Z,19.17
2018-05-16T08:55:18.041Z,19.31
2018-05-16T08:57:45.505Z,19.24
2018-05-16T09:00:12.989Z,19.20
2018-05-16T09:02:40.462Z,19.02
2018-05-16T09:05:07.952Z,19.52
2018-05-16T09:07:35.409Z,19.64
2018-05-16T09:10:02.891Z,19.90
2018-05-16T09:12:30.358Z,20.22
2018-05-16T09:14:57.837Z,19.26
2018-05-16T09:17:25.365Z,20.02
2018-05-16T09:19:52.828Z,19.78
2018-05-16T09:22:20.292Z,20.31
2018-05-16T09:24:47.782Z,20.37
2018-05-16T09:27:15.245Z,20.94
2018-05-16T09:29:42.773Z,20.86
2018-05-16T09:32:10.245Z,20.69
2018-05-16T09:34:37.733Z,19.89
2018-05-16T09:37:05.211Z,20.56
2018-05-16T09:39:32.738Z,20.65
2018-05-16T09:42:00.209Z,20.67
2018-05-16T09:44:27.690Z,19.61
2018-05-16T09:46:55.159Z,20.06
2018-05-16T09:49:22.670Z,20.01
2018-05-16T09:51:50.182Z,19.59
2018-05-16T09:54:17.677Z,19.69
2018-05-16T09:56:45.166Z,19.33
2018-05-16T09:59:12.661Z,19.33
2018-05-16T10:01:40.130Z,19.56
2018-05-16T10:04:07.617Z,19.65
2018-05-16T10:06:35.090Z,19.38
2018-05-16T10:09:02.585Z,19.66
2018-05-16T10:11:30.067Z,19.80
2018-05-16T10:13:57.558Z,19.22
2018-05-16T10:16:25.035Z,19.75
2018-05-16T10:18:52.557Z,20.17
2018-05-16T10:21:20.046Z,20.33
2018-05-16T10:23:47.560Z,20.43
2018-05-16T10:26:15.025Z,20.57
2018-05-16T10:28:42.482Z,20.53
2018-05-16T10:31:09.982Z,20.30
2018-05-16T10:33:39.373Z,20.24
2018-05-16T10:36:06.866Z,20.50
2018-05-16T10:38:34.343Z,20.40
2018-05-16T10:41:02.224Z,20.79
2018-05-16T10:43:29.746Z,21.08
2018-05-16T10:45:57.301Z,21.08
2018-05-16T10:48:24.769Z,21.20
2018-05-16T10:50:52.276Z,21.17
2018-05-16T10:53:19.771Z,20.96
2018-05-16T10:55:47.254Z,20.93
2018-05-16T10:58:14.897Z,20.78
2018-05-16T11:00:42.389Z,20.84
2018-05-16T11:03:09.887Z,20.55
2018-05-16T11:05:37.378Z,20.58
2018-05-16T11:08:04.845Z,20.26
2018-05-16T11:10:32.330Z,20.15
2018-05-16T11:12:59.840Z,20.26
2018-05-16T11:15:27.342Z,20.32
2018-05-16T11:17:54.811Z,20.63
2018-05-16T11:20:22.290Z,20.78
2018-05-16T11:22:49.778Z,20.68
2018-05-16T11:25:17.243Z,20.63
2018-05-16T11:27:45.575Z,20.63
2018-05-16T11:30:13.037Z,20.78
2018-05-16T11:32:40.530Z,20.64
2018-05-16T11:35:07.990Z,20.50
2018-05-16T11:37:35.466Z,20.55
2018-05-16T11:40:02.935Z,20.58
2018-05-16T11:42:30.512Z,20.54
2018-05-16T11:44:58.026Z,20.76
2018-05-16T11:47:25.399Z,21.14
2018-05-16T11:49:52.942Z,21.86
2018-05-16T11:52:20.372Z,22.47
2018-05-16T11:54:47.848Z,22.75
2018-05-16T11:57:15.334Z,22.71
2018-05-16T11:59:42.811Z,22.44
2018-05-16T12:02:10.289Z,22.81
2018-05-16T12:04:37.750Z,22.55
2018-05-16T12:07:05.236Z,22.94
2018-05-16T12:09:32.706Z,22.48
2018-05-16T12:12:00.189Z,22.60
2018-05-16T12:14:27.706Z,22.31
2018-05-16T12:16:55.156Z,21.75
2018-05-16T12:19:22.638Z,21.87
2018-05-16T12:21:50.090Z,21.84
2018-05-16T12:24:17.570Z,22.09
2018-05-16T12:26:45.038Z,21.91
2018-05-16T12:29:12.544Z,22.03
2018-05-16T12:31:39.998Z,22.03
2018-05-16T12:34:07.486Z,21.74
2018-05-16T12:36:34.960Z,22.57
2018-05-16T12:39:02.445Z,22.60
2018-05-16T12:41:29.914Z,22.75
2018-05-16T12:43:57.394Z,22.63
2018-05-16T12:46:24.857Z,22.76
2018-05-16T12:48:52.799Z,22.34
2018-05-16T12:51:20.254Z,22.00
2018-05-16T12:53:47.764Z,21.82
2018-05-16T12:56:15.229Z,21.64
2018-05-16T12:58:42.714Z,21.50
2018-05-16T13:01:10.181Z,21.43
2018-05-16T13:03:37.676Z,21.43
2018-05-16T13:06:05.147Z,21.41
2018-05-16T13:08:32.613Z,21.14
2018-05-16T13:11:00.098Z,21.05
2018-05-16T13:13:27.573Z,20.65
2018-05-16T13:15:55.066Z,20.49
2018-05-16T13:18:22.531Z,20.02
2018-05-16T13:20:50.018Z,19.78
2018-05-16T13:23:17.492Z,19.01
2018-05-16T13:25:44.970Z,18.48
2018-05-16T13:28:12.439Z,18.23
2018-05-16T13:30:39.926Z,18.04
2018-05-16T13:33:07.387Z,18.16
2018-05-16T13:35:34.910Z,18.16
2018-05-16T13:38:02.358Z,18.28
2018-05-16T13:40:29.842Z,18.14
2018-05-16T13:42:57.311Z,18.43
2018-05-16T13:45:24.806Z,18.96
2018-05-16T13:47:52.261Z,19.36
2018-05-16T13:50:19.737Z,19.57
2018-05-16T13:52:47.194Z,19.53
2018-05-16T13:55:14.739Z,19.45
2018-05-16T13:57:42.201Z,19.42
2018-05-16T14:00:09.718Z,19.35
2018-05-16T14:02:37.167Z,19.07
2018-05-16T14:05:04.655Z,19.15
2018-05-16T14:07:32.118Z,18.96
2018-05-16T14:09:59.607Z,18.84
2018-05-16T14:12:27.077Z,18.82
2018-05-16T14:14:54.558Z,18.72
2018-05-16T14:17:22.023Z,18.74
2018-05-16T14:19:49.506Z,18.67
2018-05-16T14:22:16.969Z,18.44
2018-05-16T14:24:44.454Z,18.36
2018-05-16T14:27:11.913Z,18.44
2018-05-16T14:29:39.370Z,18.21
2018-05-16T14:32:06.855Z,17.95
2018-05-16T14:34:34.316Z,18.09
2018-05-16T14:37:01.818Z,18.20
2018-05-16T14:39:29.294Z,18.24
2018-05-16T14:41:56.773Z,18.34
2018-05-16T14:44:24.241Z,18.43
2018-05-16T14:46:51.725Z,18.66
2018-05-16T14:49:19.194Z,19.04
2018-05-16T14:51:46.673Z,19.50
2018-05-16T14:54:14.151Z,19.48
2018-05-16T14:56:41.630Z,19.84
2018-05-16T14:59:09.091Z,19.64
2018-05-16T15:01:36.588Z,19.33
2018-05-16T15:04:04.070Z,19.67
2018-05-16T15:06:31.552Z,19.52
2018-05-16T15:08:59.017Z,19.42
2018-05-16T15:11:26.506Z,19.44
2018-05-16T15:13:53.998Z,19.39
2018-05-16T15:16:22.401Z,19.32
2018-05-16T15:18:49.867Z,19.51
2018-05-16T15:21:17.370Z,19.56
2018-05-16T15:23:44.874Z,19.74
2018-05-16T15:26:12.375Z,19.87
2018-05-16T15:28:39.821Z,19.77
2018-05-16T15:31:07.335Z,19.77
2018-05-16T15:33:34.797Z,19.96
2018-05-16T15:36:02.281Z,19.96
2018-05-16T15:38:29.806Z,19.62
2018-05-16T15:40:57.242Z,19.44
2018-05-16T15:43:24.702Z,18.74
2018-05-16T15:45:52.178Z,18.53
2018-05-16T15:48:19.640Z,18.48
2018-05-16T15:50:47.098Z,18.55
2018-05-16T15:53:14.585Z,18.50
2018-05-16T15:55:42.055Z,18.47
2018-05-16T15:58:09.543Z,18.40
2018-05-16T16:00:37.005Z,18.38
2018-05-16T16:03:04.491Z,18.44
2018-05-16T16:05:31.953Z,18.28
2018-05-16T16:07:59.474Z,18.07
2018-05-16T16:10:26.987Z,17.98
2018-05-16T16:12:54.469Z,18.18
2018-05-16T16:15:21.953Z,18.28
2018-05-16T16:17:49.511Z,17.95
2018-05-16T16:20:16.974Z,17.80
2018-05-16T16:22:44.474Z,17.83
2018-05-16T16:25:11.947Z,17.91
2018-05-16T16:27:39.426Z,18.10
2018-05-16T16:30:06.889Z,18.03
2018-05-16T16:32:34.377Z,18.12
2018-05-16T16:35:02.579Z,18.21
2018-05-16T16:37:30.063Z,18.12
2018-05-16T16:39:57.917Z,17.82
2018-05-16T16:42:25.398Z,17.72
2018-05-16T16:44:52.938Z,17.43
2018-05-16T16:47:20.374Z,17.15
2018-05-16T16:49:47.840Z,16.66
2018-05-16T16:52:15.322Z,16.61
2018-05-16T16:54:42.804Z,15.94
2018-05-16T16:57:10.375Z,15.96
2018-05-16T16:59:37.770Z,16.09
2018-05-16T17:02:05.253Z,16.35
2018-05-16T17:04:32.737Z,16.27
2018-05-16T17:07:00.219Z,16.35
2018-05-16T17:09:27.736Z,16.70
2018-05-16T17:11:55.207Z,16.89
2018-05-16T17:14:22.690Z,16.49
2018-05-16T17:16:50.171Z,16.39
2018-05-16T17:19:17.666Z,16.31
2018-05-16T17:21:45.142Z,16.30
2018-05-16T17:24:12.656Z,16.24
2018-05-16T17:26:40.136Z,16.29
2018-05-16T17:29:07.626Z,16.01
2018-05-16T17:31:35.094Z,15.99
2018-05-16T17:34:02.604Z,15.99
2018-05-16T17:36:30.577Z,15.64
2018-05-16T17:38:58.114Z,15.50
2018-05-16T17:41:25.628Z,15.43
2018-05-16T17:43:53.131Z,15.54
2018-05-16T17:46:20.607Z,15.65
2018-05-16T17:48:48.098Z,15.60
2018-05-16T17:51:15.561Z,15.63
2018-05-16T17:53:43.131Z,15.60
2018-05-16T17:56:10.530Z,15.59
2018-05-16T17:58:38.017Z,15.49
2018-05-16T18:01:05.482Z,15.49
2018-05-16T18:03:32.979Z,15.38
2018-05-16T18:06:00.458Z,15.26
2018-05-16T18:08:27.946Z,15.22
2018-05-16T18:10:55.409Z,15.15
2018-05-16T18:16:42.730Z,14.93
2018-05-16T18:19:10.223Z,14.90
2018-05-16T18:21:37.694Z,14.88
2018-05-16T18:24:05.213Z,14.84
2018-05-16T18:26:32.670Z,14.70
2018-05-16T18:29:00.177Z,14.67
2018-05-16T18:31:27.639Z,14.57
2018-05-16T18:33:55.100Z,14.58
2018-05-16T18:36:22.585Z,14.49
2018-05-16T18:38:50.061Z,14.50
2018-05-16T18:41:17.554Z,14.60
2018-05-16T18:43:45.022Z,14.63
2018-05-16T18:46:12.591Z,14.63
2018-05-16T18:48:39.987Z,14.57
2018-05-16T18:51:07.477Z,14.51
2018-05-16T18:53:34.940Z,14.49
2018-05-16T18:56:02.509Z,14.51
2018-05-16T18:58:29.919Z,14.53
2018-05-16T19:00:57.413Z,14.56
2018-05-16T19:03:24.886Z,14.57
2018-05-16T19:05:52.383Z,14.61
2018-05-16T19:08:19.849Z,14.61
2018-05-16T19:10:47.341Z,14.61
2018-05-16T19:13:14.805Z,14.66
2018-05-16T19:15:42.300Z,14.58
2018-05-16T19:18:09.769Z,14.52
2018-05-16T19:20:37.258Z,14.56
2018-05-16T19:23:04.730Z,14.43
2018-05-16T19:25:32.222Z,14.47
2018-05-16T19:27:59.690Z,14.46
2018-05-16T19:30:27.179Z,14.45
2018-05-16T19:32:54.659Z,14.41
2018-05-16T19:35:22.153Z,14.41
2018-05-16T19:37:49.634Z,14.43
2018-05-16T19:40:17.131Z,14.38
2018-05-16T19:42:44.602Z,14.33
2018-05-16T19:45:12.089Z,14.27
2018-05-16T19:47:39.568Z,14.27
2018-05-16T19:50:07.059Z,14.23
2018-05-16T19:52:34.550Z,14.16
2018-05-16T19:55:02.022Z,14.14
2018-05-16T19:57:29.512Z,14.11
2018-05-16T19:59:56.987Z,14.08
2018-05-16T20:02:24.482Z,14.07
2018-05-16T20:04:51.953Z,14.08
2018-05-16T20:07:19.437Z,14.06
2018-05-16T20:09:46.902Z,14.03
2018-05-16T20:12:14.426Z,14.04
2018-05-16T20:14:41.977Z,14.06
2018-05-16T20:17:09.409Z,14.02
2018-05-16T20:19:36.873Z,14.04
2018-05-16T20:22:04.358Z,14.02
2018-05-16T20:24:31.830Z,14.04
2018-05-16T20:26:59.310Z,14.04
2018-05-16T20:29:26.794Z,14.02
2018-05-16T20:31:54.281Z,13.99
2018-05-16T20:34:21.742Z,13.98
2018-05-16T20:36:49.250Z,13.97
2018-05-16T20:39:16.726Z,13.96
2018-05-16T20:41:44.217Z,13.99
2018-05-16T20:44:11.710Z,14.02
2018-05-16T20:46:39.198Z,14.05
2018-05-16T20:49:06.683Z,14.04
2018-05-16T20:51:34.176Z,14.04
2018-05-16T20:54:01.642Z,14.03
2018-05-16T20:56:29.132Z,14.00
2018-05-16T20:58:56.632Z,14.04
2018-05-16T21:01:24.129Z,14.09
2018-05-16T21:03:51.598Z,14.07
2018-05-16T21:06:19.084Z,14.08
2018-05-16T21:08:46.563Z,14.05
2018-05-16T21:11:14.040Z,14.04
2018-05-16T21:13:41.534Z,13.99
2018-05-16T21:16:09.010Z,13.98
2018-05-16T21:18:36.503Z,14.00
2018-05-16T21:21:03.981Z,14.02
2018-05-16T21:23:31.469Z,13.98
2018-05-16T21:25:58.941Z,13.97
2018-05-16T21:28:26.429Z,13.93
2018-05-16T21:30:53.904Z,13.88
2018-05-16T21:33:21.402Z,13.86
2018-05-16T21:35:48.886Z,13.77
2018-05-16T21:38:16.377Z,13.75
2018-05-16T21:40:43.847Z,13.73
2018-05-16T21:43:11.338Z,13.74
2018-05-16T21:45:38.810Z,13.70
2018-05-16T21:48:06.308Z,13.66
2018-05-16T21:50:33.785Z,13.68
2018-05-16T21:53:01.284Z,13.68
2018-05-16T21:55:28.754Z,13.68
2018-05-16T21:57:56.250Z,13.63
2018-05-16T22:00:23.725Z,13.59
2018-05-16T22:02:51.190Z,13.65
2018-05-16T22:05:18.678Z,13.62
2018-05-16T22:07:46.145Z,13.58
2018-05-16T22:10:13.653Z,13.54
2018-05-16T22:12:41.122Z,13.50
2018-05-16T22:15:08.620Z,13.46
2018-05-16T22:17:36.091Z,13.41
2018-05-16T22:20:03.596Z,13.41
2018-05-16T22:22:31.066Z,13.44
2018-05-16T22:24:58.558Z,13.44
2018-05-16T22:27:26.030Z,13.42
2018-05-16T22:29:53.522Z,13.40
2018-05-16T22:32:26.599Z,13.38
2018-05-16T22:34:59.735Z,13.36
2018-05-16T22:37:32.855Z,13.36
2018-05-16T22:40:06.060Z,13.30
2018-05-16T22:42:32.967Z,13.27
2018-05-16T22:45:06.109Z,13.15
2018-05-16T22:47:33.582Z,13.11
2018-05-16T22:50:01.090Z,13.08
2018-05-16T22:52:28.570Z,13.02
2018-05-16T22:54:56.079Z,12.99
2018-05-16T22:57:23.553Z,12.95
2018-05-16T22:59:51.026Z,12.91
2018-05-16T23:02:18.529Z,12.85
2018-05-16T23:04:46.005Z,12.83
2018-05-16T23:07:13.497Z,12.78
2018-05-16T23:09:41.024Z,12.81
2018-05-16T23:12:08.479Z,12.80
2018-05-16T23:14:35.956Z,12.79
2018-05-16T23:17:03.453Z,12.80
2018-05-16T23:19:30.929Z,12.74
2018-05-16T23:21:58.430Z,12.76
2018-05-16T23:24:25.978Z,12.79
2018-05-16T23:26:53.470Z,12.80
2018-05-16T23:29:20.933Z,12.75
2018-05-16T23:31:48.405Z,12.81
2018-05-16T23:34:15.894Z,12.80
2018-05-16T23:36:43.366Z,12.86
2018-05-16T23:39:10.863Z,12.85
2018-05-16T23:41:38.335Z,12.84
2018-05-16T23:44:05.827Z,12.86
2018-05-16T23:46:33.296Z,12.83
2018-05-16T23:49:00.797Z,12.81
2018-05-16T23:51:28.266Z,12.82
2018-05-16T23:53:55.758Z,12.78
2018-05-16T23:56:23.221Z,12.76
2018-05-16T23:58:50.710Z,12.73
